createdAt,value
2022-09-15T07:22:41.849Z,1.25
2022-09-15T07:22:53.675Z,1.88
2022-09-15T07:23:05.460Z,2.20
2022-09-15T07:23:18.170Z,2.33
2022-09-15T07:23:30.046Z,2.20
2022-09-15T07:23:42.084Z,2.30
2022-09-15T07:23:56.481Z,3.13
2022-09-15T07:24:10.335Z,3.50
2022-09-15T07:24:22.087Z,3.50
2022-09-15T07:24:33.948Z,2.92
2022-09-15T07:24:45.819Z,2.60
2022-09-15T07:24:57.666Z,2.47
2022-09-15T07:25:09.851Z,2.78
2022-09-15T07:25:21.635Z,3.22
2022-09-15T07:25:33.718Z,3.55
2022-09-15T07:25:45.635Z,3.35
2022-09-15T07:26:09.102Z,3.03
2022-09-15T07:26:23.105Z,2.85
2022-09-15T07:26:34.917Z,2.88
2022-09-15T07:26:46.761Z,3.05
2022-09-15T07:26:58.833Z,3.03
2022-09-15T07:27:10.602Z,2.75
2022-09-15T07:27:29.554Z,2.25
2022-09-15T07:27:41.338Z,2.60
2022-09-15T07:27:53.153Z,2.60
2022-09-15T07:28:05.024Z,2.53
2022-09-15T07:28:17.166Z,3.20
2022-09-15T07:28:29.069Z,3.80
2022-09-15T07:28:42.350Z,3.65
2022-09-15T07:28:56.742Z,3.33
2022-09-15T07:29:09.669Z,3.08
2022-09-15T07:29:21.454Z,2.42
2022-09-15T07:29:37.581Z,2.70
2022-09-15T07:29:51.098Z,2.50
2022-09-15T07:30:03.813Z,1.77
2022-09-15T07:30:15.795Z,1.92
2022-09-15T07:30:27.634Z,2.17
2022-09-15T07:30:39.865Z,2.80
2022-09-15T07:30:51.961Z,2.63
2022-09-15T07:31:05.859Z,2.85
2022-09-15T07:31:20.084Z,2.33
2022-09-15T07:31:33.573Z,2.33
2022-09-15T07:31:45.582Z,2.50
2022-09-15T07:31:57.695Z,2.50
2022-09-15T07:32:09.715Z,2.30
2022-09-15T07:32:21.552Z,2.40
2022-09-15T07:32:33.595Z,2.53
2022-09-15T07:32:45.459Z,2.47
2022-09-15T07:32:57.290Z,2.53
2022-09-15T07:33:11.583Z,2.30
2022-09-15T07:33:23.510Z,2.03
2022-09-15T07:33:36.829Z,1.88
2022-09-15T07:33:48.792Z,1.95
2022-09-15T07:34:01.087Z,2.03
2022-09-15T07:34:12.910Z,2.00
2022-09-15T07:34:24.689Z,1.98
2022-09-15T07:34:36.476Z,1.65
2022-09-15T07:34:48.258Z,1.70
2022-09-15T07:35:00.021Z,2.10
2022-09-15T07:35:12.515Z,2.97
2022-09-15T07:35:24.370Z,3.55
2022-09-15T07:35:41.449Z,3.65
2022-09-15T07:35:53.237Z,2.58
2022-09-15T07:36:06.595Z,2.35
2022-09-15T07:36:18.422Z,3.33
2022-09-15T07:36:30.700Z,3.88
2022-09-15T07:36:42.469Z,3.97
2022-09-15T07:36:54.333Z,3.50
2022-09-15T07:37:06.608Z,3.63
2022-09-15T07:37:18.727Z,3.33
2022-09-15T07:37:33.239Z,2.70
2022-09-15T07:37:45.084Z,2.17
2022-09-15T07:37:56.877Z,2.35
2022-09-15T07:38:08.911Z,2.28
2022-09-15T07:38:20.744Z,2.40
2022-09-15T07:38:33.273Z,2.63
2022-09-15T07:38:47.861Z,2.38
2022-09-15T07:38:59.631Z,2.10
2022-09-15T07:39:11.427Z,1.98
2022-09-15T07:39:23.172Z,1.90
2022-09-15T07:39:34.963Z,2.05
2022-09-15T07:39:46.920Z,2.42
2022-09-15T07:39:59.541Z,2.47
2022-09-15T07:40:12.080Z,2.17
2022-09-15T07:40:24.082Z,2.13
2022-09-15T07:40:36.431Z,2.08
2022-09-15T07:40:49.422Z,2.03
2022-09-15T07:41:08.999Z,1.77
2022-09-15T07:41:28.142Z,1.33
2022-09-15T07:41:39.953Z,1.48
2022-09-15T07:41:51.858Z,1.55
2022-09-15T07:42:04.473Z,1.58
2022-09-15T07:42:16.252Z,1.73
2022-09-15T07:42:32.091Z,1.65
2022-09-15T07:42:46.491Z,1.70
2022-09-15T07:42:58.264Z,1.83
2022-09-15T07:43:10.140Z,1.83
2022-09-15T07:43:21.946Z,1.73
2022-09-15T07:43:34.045Z,1.45
2022-09-15T07:43:53.503Z,1.27
2022-09-15T07:44:06.944Z,1.20
2022-09-15T07:44:18.733Z,1.30
2022-09-15T07:44:30.486Z,1.40
2022-09-15T07:44:42.259Z,1.48
2022-09-15T07:44:54.023Z,1.60
2022-09-15T07:45:06.769Z,1.80
2022-09-15T07:45:18.686Z,1.60
2022-09-15T07:45:31.558Z,1.42
2022-09-15T07:45:43.601Z,1.75
2022-09-15T07:45:58.469Z,1.70
2022-09-15T07:46:10.458Z,1.80
2022-09-15T07:46:24.153Z,1.83
2022-09-15T07:46:36.381Z,1.55
2022-09-15T07:46:48.193Z,1.50
2022-09-15T07:46:59.974Z,1.38
2022-09-15T07:47:11.731Z,1.48
2022-09-15T07:47:23.504Z,1.25
2022-09-15T07:47:35.287Z,1.13
2022-09-15T07:47:47.111Z,0.90
2022-09-15T07:47:58.904Z,0.93
2022-09-15T07:48:10.843Z,1.20
2022-09-15T07:48:26.360Z,1.30
2022-09-15T07:48:38.474Z,1.95
2022-09-15T07:48:52.258Z,1.95
2022-09-15T07:49:04.613Z,1.67
2022-09-15T07:49:16.395Z,1.55
2022-09-15T07:49:28.477Z,1.92
2022-09-15T07:49:40.499Z,2.10
2022-09-15T07:49:52.959Z,2.22
2022-09-15T07:50:07.934Z,1.75
2022-09-15T07:50:19.687Z,1.52
2022-09-15T07:50:31.647Z,1.60
2022-09-15T07:50:46.938Z,1.88
2022-09-15T07:51:01.709Z,1.80
2022-09-15T07:51:13.602Z,1.98
2022-09-15T07:51:26.136Z,2.08
2022-09-15T07:51:37.881Z,1.83
2022-09-15T07:51:49.680Z,2.00
2022-09-15T07:52:01.669Z,2.00
2022-09-15T07:52:13.443Z,2.00
2022-09-15T07:52:25.364Z,1.70
2022-09-15T07:52:37.167Z,1.70
2022-09-15T07:52:49.011Z,1.55
2022-09-15T07:53:01.134Z,1.67
2022-09-15T07:53:12.984Z,1.80
2022-09-15T07:53:24.857Z,1.77
2022-09-15T07:53:36.614Z,1.65
2022-09-15T07:53:48.681Z,1.80
2022-09-15T07:54:00.479Z,1.73
2022-09-15T07:54:12.487Z,1.90
2022-09-15T07:54:24.354Z,1.70
2022-09-15T07:54:36.318Z,1.70
2022-09-15T07:54:48.153Z,1.50
2022-09-15T07:55:00.108Z,1.70
2022-09-15T07:55:12.284Z,2.03
2022-09-15T07:55:24.330Z,1.75
2022-09-15T07:55:36.116Z,1.80
2022-09-15T07:55:54.469Z,1.60
2022-09-15T07:56:06.716Z,1.98
2022-09-15T07:56:18.727Z,1.90
2022-09-15T07:56:30.635Z,1.77
2022-09-15T07:56:42.411Z,1.75
2022-09-15T07:56:54.151Z,2.10
2022-09-15T07:57:06.524Z,2.25
2022-09-15T07:57:18.287Z,2.42
2022-09-15T07:57:30.066Z,1.98
2022-09-15T07:57:42.620Z,1.65
2022-09-15T07:58:01.015Z,1.88
2022-09-15T07:58:12.849Z,1.83
2022-09-15T07:58:25.126Z,2.00
2022-09-15T07:58:37.056Z,2.05
2022-09-15T07:58:49.126Z,2.28
2022-09-15T07:59:00.946Z,1.88
2022-09-15T07:59:12.783Z,2.30
2022-09-15T07:59:24.661Z,2.10
2022-09-15T07:59:40.991Z,1.67
2022-09-15T07:59:53.110Z,1.83
2022-09-15T08:00:05.826Z,1.88
2022-09-15T08:00:17.758Z,1.73
2022-09-15T08:00:29.643Z,1.70
2022-09-15T08:00:41.531Z,1.70
2022-09-15T08:00:53.276Z,1.65
2022-09-15T08:01:11.547Z,1.70
2022-09-15T08:01:23.535Z,1.90
2022-09-15T08:01:35.424Z,2.20
2022-09-15T08:01:47.522Z,2.25
2022-09-15T08:01:59.364Z,1.98
2022-09-15T08:02:17.739Z,1.92
2022-09-15T08:02:29.541Z,1.60
2022-09-15T08:02:41.405Z,1.50
2022-09-15T08:02:53.241Z,1.55
2022-09-15T08:03:05.056Z,1.60
2022-09-15T08:03:16.863Z,1.77
2022-09-15T08:03:28.629Z,2.30
2022-09-15T08:03:48.785Z,2.45
2022-09-15T08:04:00.665Z,2.35
2022-09-15T08:04:12.439Z,2.00
2022-09-15T08:04:24.214Z,1.50
2022-09-15T08:04:35.961Z,1.60
2022-09-15T08:04:47.825Z,1.90
2022-09-15T08:04:59.635Z,1.85
2022-09-15T08:05:11.409Z,1.77
2022-09-15T08:05:28.035Z,1.75
2022-09-15T08:05:44.810Z,2.20
2022-09-15T08:06:01.365Z,2.00
2022-09-15T08:06:13.428Z,1.73
2022-09-15T08:06:26.611Z,1.80
2022-09-15T08:06:38.378Z,1.80
2022-09-15T08:06:50.269Z,1.50
2022-09-15T08:07:02.074Z,1.60
2022-09-15T08:07:14.094Z,1.98
2022-09-15T08:07:25.911Z,2.20
2022-09-15T08:07:37.755Z,1.92
2022-09-15T08:07:50.255Z,2.05
2022-09-15T08:08:02.431Z,2.00
2022-09-15T08:08:14.271Z,1.83
2022-09-15T08:08:26.152Z,1.85
2022-09-15T08:08:38.822Z,1.75
2022-09-15T08:08:55.074Z,1.40
2022-09-15T08:09:14.929Z,1.60
2022-09-15T08:09:26.779Z,1.85
2022-09-15T08:09:39.343Z,1.85
2022-09-15T08:09:51.103Z,1.98
2022-09-15T08:10:02.990Z,1.80
2022-09-15T08:10:14.901Z,1.88
2022-09-15T08:10:26.765Z,1.77
2022-09-15T08:10:40.163Z,1.67
2022-09-15T08:10:52.014Z,1.67
2022-09-15T08:11:15.141Z,1.88
2022-09-15T08:11:30.000Z,1.70
2022-09-15T08:11:44.846Z,1.90
2022-09-15T08:11:56.583Z,1.40
2022-09-15T08:12:08.987Z,1.10
2022-09-15T08:12:20.781Z,1.20
2022-09-15T08:12:32.559Z,1.38
2022-09-15T08:12:45.599Z,1.75
2022-09-15T08:12:59.312Z,2.10
2022-09-15T08:13:11.145Z,2.58
2022-09-15T08:13:23.126Z,2.45
2022-09-15T08:13:35.585Z,2.13
2022-09-15T08:13:49.638Z,1.88
2022-09-15T08:14:03.195Z,1.95
2022-09-15T08:14:15.035Z,1.58
2022-09-15T08:14:26.909Z,1.77
2022-09-15T08:14:38.706Z,1.52
2022-09-15T08:14:50.771Z,1.65
2022-09-15T08:15:03.379Z,1.45
2022-09-15T08:15:15.351Z,1.50
2022-09-15T08:15:27.356Z,1.42
2022-09-15T08:15:39.139Z,1.50
2022-09-15T08:15:51.155Z,1.60
2022-09-15T08:16:11.013Z,1.83
2022-09-15T08:16:23.945Z,1.33
2022-09-15T08:16:36.022Z,1.42
2022-09-15T08:16:47.929Z,1.80
2022-09-15T08:17:01.135Z,1.90
2022-09-15T08:17:12.855Z,1.42
2022-09-15T08:17:24.820Z,1.50
2022-09-15T08:17:36.579Z,1.92
2022-09-15T08:17:48.349Z,1.58
2022-09-15T08:18:00.211Z,1.55
2022-09-15T08:18:12.465Z,1.55
2022-09-15T08:18:24.719Z,1.80
2022-09-15T08:18:36.840Z,1.60
2022-09-15T08:18:49.086Z,1.60
2022-09-15T08:19:00.909Z,1.90
2022-09-15T08:19:12.710Z,1.90
2022-09-15T08:19:24.494Z,1.80
2022-09-15T08:19:36.504Z,1.80
2022-09-15T08:19:48.358Z,1.73
2022-09-15T08:20:00.243Z,1.77
2022-09-15T08:20:13.038Z,1.77
2022-09-15T08:20:24.804Z,1.50
2022-09-15T08:20:39.687Z,1.38
2022-09-15T08:20:51.484Z,1.48
2022-09-15T08:21:07.056Z,1.75
2022-09-15T08:21:22.383Z,1.92
2022-09-15T08:21:34.236Z,1.60
2022-09-15T08:21:46.043Z,1.65
2022-09-15T08:21:58.092Z,1.70
2022-09-15T08:22:09.924Z,1.70
2022-09-15T08:22:21.770Z,2.17
2022-09-15T08:22:33.644Z,2.72
2022-09-15T08:22:45.613Z,2.25
2022-09-15T08:22:57.495Z,2.15
2022-09-15T08:23:10.586Z,1.55
2022-09-15T08:23:23.197Z,1.55
2022-09-15T08:23:35.373Z,1.60
2022-09-15T08:23:55.937Z,1.95
2022-09-15T08:24:09.715Z,1.80
2022-09-15T08:24:22.791Z,1.92
2022-09-15T08:24:35.092Z,1.60
2022-09-15T08:24:46.894Z,1.50
2022-09-15T08:24:58.663Z,1.58
2022-09-15T08:25:10.459Z,1.90
2022-09-15T08:25:22.252Z,1.80
2022-09-15T08:25:34.063Z,1.45
2022-09-15T08:25:46.111Z,1.45
2022-09-15T08:25:57.894Z,1.55
2022-09-15T08:26:14.145Z,1.67
2022-09-15T08:26:27.066Z,1.60
2022-09-15T08:26:38.890Z,1.52
2022-09-15T08:26:51.159Z,1.58
2022-09-15T08:27:03.028Z,1.77
2022-09-15T08:27:14.788Z,1.80
2022-09-15T08:27:26.554Z,1.92
2022-09-15T08:27:38.608Z,1.80
2022-09-15T08:27:50.409Z,1.60
2022-09-15T08:28:02.462Z,1.65
2022-09-15T08:28:14.349Z,1.63
2022-09-15T08:28:26.445Z,1.83
2022-09-15T08:28:38.386Z,1.85
2022-09-15T08:28:50.230Z,1.80
2022-09-15T08:29:02.175Z,1.58
2022-09-15T08:29:14.076Z,2.00
2022-09-15T08:29:25.899Z,1.80
2022-09-15T08:29:37.671Z,1.85
2022-09-15T08:29:49.570Z,1.85
2022-09-15T08:30:01.422Z,1.77
2022-09-15T08:30:13.860Z,1.50
2022-09-15T08:30:26.648Z,1.42
2022-09-15T08:30:38.857Z,1.55
2022-09-15T08:30:50.667Z,1.70
2022-09-15T08:31:07.601Z,1.67
2022-09-15T08:31:19.574Z,2.22
2022-09-15T08:31:31.374Z,2.28
2022-09-15T08:31:44.954Z,2.40
2022-09-15T08:31:56.738Z,2.00
2022-09-15T08:32:09.769Z,2.00
2022-09-15T08:32:21.509Z,1.67
2022-09-15T08:32:33.491Z,1.67
2022-09-15T08:32:45.289Z,2.00
2022-09-15T08:32:57.208Z,2.10
2022-09-15T08:33:09.038Z,2.00
2022-09-15T08:33:20.864Z,1.85
2022-09-15T08:33:32.788Z,1.95
2022-09-15T08:33:51.747Z,1.98
2022-09-15T08:34:06.415Z,1.67
2022-09-15T08:34:18.258Z,1.50
2022-09-15T08:34:30.179Z,1.60
2022-09-15T08:34:42.023Z,1.80
2022-09-15T08:34:53.816Z,1.80
2022-09-15T08:35:06.607Z,1.67
2022-09-15T08:35:18.682Z,1.85
2022-09-15T08:35:32.417Z,2.38
2022-09-15T08:35:44.179Z,2.17
2022-09-15T08:36:00.274Z,1.73
2022-09-15T08:36:12.052Z,2.10
2022-09-15T08:36:27.451Z,1.88
2022-09-15T08:36:39.474Z,1.40
2022-09-15T08:36:51.242Z,1.75
2022-09-15T08:37:03.007Z,2.25
2022-09-15T08:37:14.902Z,2.13
2022-09-15T08:37:26.638Z,1.67
2022-09-15T08:37:38.645Z,1.33
2022-09-15T08:37:53.221Z,1.35
2022-09-15T08:38:05.054Z,1.70
2022-09-15T08:38:16.786Z,1.73
2022-09-15T08:38:28.588Z,1.83
2022-09-15T08:38:41.644Z,1.70
2022-09-15T08:38:53.424Z,1.77
2022-09-15T08:39:05.449Z,1.58
2022-09-15T08:39:17.503Z,2.40
2022-09-15T08:39:29.340Z,2.20
2022-09-15T08:39:41.539Z,2.10
2022-09-15T08:39:53.317Z,1.33
2022-09-15T08:40:05.881Z,1.42
2022-09-15T08:40:28.170Z,1.30
2022-09-15T08:40:43.698Z,1.40
2022-09-15T08:41:05.339Z,1.48
2022-09-15T08:41:38.227Z,1.55
2022-09-15T08:41:52.189Z,1.70
2022-09-15T08:42:04.589Z,2.17
2022-09-15T08:42:18.443Z,1.85
2022-09-15T08:42:30.589Z,1.58
2022-09-15T08:42:44.911Z,1.42
2022-09-15T08:42:59.159Z,1.55
2022-09-15T08:43:19.636Z,1.40
2022-09-15T08:44:20.394Z,1.40
2022-09-15T08:44:42.888Z,1.98
2022-09-15T08:45:04.292Z,1.55
2022-09-15T08:45:30.971Z,1.95
2022-09-15T08:45:50.077Z,1.65
2022-09-15T08:46:06.816Z,1.40
2022-09-15T08:46:23.384Z,1.65
2022-09-15T08:46:46.410Z,1.42
2022-09-15T08:47:28.408Z,1.42
2022-09-15T08:47:45.262Z,1.58
2022-09-15T08:48:00.071Z,1.40
2022-09-15T08:48:13.969Z,1.40
2022-09-15T08:48:29.851Z,1.27
2022-09-15T08:48:51.204Z,1.52
2022-09-15T08:49:23.587Z,1.77
2022-09-15T08:50:01.930Z,1.52
2022-09-15T08:50:39.899Z,2.10
2022-09-15T08:50:52.372Z,1.45
2022-09-15T08:51:08.071Z,1.50
2022-09-15T08:51:43.594Z,1.27
2022-09-15T08:51:55.984Z,1.98
2022-09-15T08:52:13.905Z,1.63
2022-09-15T08:52:57.281Z,1.25
2022-09-15T08:53:29.271Z,1.50
2022-09-15T08:53:51.978Z,1.52
2022-09-15T08:54:10.944Z,1.33
2022-09-15T08:54:28.213Z,1.60
2022-09-15T08:54:39.957Z,1.88
2022-09-15T08:54:52.294Z,2.15
2022-09-15T08:55:36.593Z,1.88
2022-09-15T08:55:50.014Z,1.40
2022-09-15T08:56:08.235Z,1.40
2022-09-15T08:56:22.327Z,1.33
2022-09-15T08:56:34.102Z,1.40
2022-09-15T08:56:45.891Z,1.33
2022-09-15T08:56:57.955Z,1.40
2022-09-15T08:57:11.966Z,1.38
2022-09-15T08:57:24.615Z,1.35
2022-09-15T08:57:36.539Z,1.60
2022-09-15T08:57:48.318Z,1.80
2022-09-15T08:58:00.131Z,1.65
2022-09-15T08:58:20.328Z,1.20
2022-09-15T08:58:35.081Z,1.23
2022-09-15T08:58:47.153Z,1.50
2022-09-15T08:58:59.079Z,1.67
2022-09-15T08:59:15.955Z,1.67
2022-09-15T08:59:34.973Z,1.42
2022-09-15T08:59:46.776Z,1.20
2022-09-15T08:59:59.642Z,1.20
2022-09-15T09:00:16.411Z,1.75
2022-09-15T09:00:28.213Z,2.13
2022-09-15T09:00:40.458Z,2.22
2022-09-15T09:01:00.400Z,2.05
2022-09-15T09:01:33.829Z,1.40
2022-09-15T09:02:16.392Z,1.48
2022-09-15T09:03:13.354Z,1.13
2022-09-15T09:03:57.862Z,1.52
2022-09-15T09:04:36.645Z,1.40
2022-09-15T09:05:14.332Z,1.77
2022-09-15T09:05:50.115Z,1.65
2022-09-15T09:06:58.918Z,1.40
2022-09-15T09:07:57.407Z,1.75
2022-09-15T09:08:50.044Z,1.38
2022-09-15T09:09:39.161Z,1.65
2022-09-15T09:10:16.895Z,1.38
2022-09-15T09:10:51.680Z,1.55
2022-09-15T09:11:30.584Z,2.08
2022-09-15T09:11:59.305Z,1.85
2022-09-15T09:12:44.675Z,1.90
2022-09-15T09:13:23.703Z,1.30
2022-09-15T09:14:27.652Z,2.13
2022-09-15T09:15:22.574Z,1.55
2022-09-15T09:16:22.102Z,2.10
2022-09-15T09:17:23.720Z,1.40
2022-09-15T09:18:22.529Z,3.15
2022-09-15T09:19:00.578Z,5.47
2022-09-15T09:19:32.260Z,7.18
2022-09-15T09:20:19.288Z,7.50
2022-09-15T09:21:11.297Z,6.25
2022-09-15T09:21:30.723Z,4.93
2022-09-15T09:25:27.328Z,2.42
2022-09-15T09:25:42.076Z,2.53
2022-09-15T09:25:53.911Z,2.00
2022-09-15T09:26:10.371Z,1.50
2022-09-15T09:26:22.388Z,1.80
2022-09-15T09:26:36.174Z,2.08
2022-09-15T09:26:50.167Z,2.22
2022-09-15T09:27:01.957Z,1.95
2022-09-15T09:27:22.239Z,1.85
2022-09-15T09:27:34.971Z,2.65
2022-09-15T09:27:46.832Z,2.50
2022-09-15T09:27:59.380Z,2.60
2022-09-15T09:28:27.386Z,2.72
2022-09-15T09:29:00.862Z,2.60
2022-09-15T09:29:20.122Z,2.60
2022-09-15T09:29:39.495Z,2.70
2022-09-15T09:30:22.478Z,2.15
2022-09-15T09:30:34.334Z,1.98
2022-09-15T09:30:46.286Z,1.80
2022-09-15T09:31:07.088Z,2.40
2022-09-15T09:31:21.741Z,1.98
2022-09-15T09:31:33.542Z,1.40
2022-09-15T09:31:50.249Z,1.73
2022-09-15T09:32:02.443Z,1.73
2022-09-15T09:32:30.685Z,1.58
2022-09-15T09:32:46.587Z,1.70
2022-09-15T09:33:30.294Z,1.75
2022-09-15T09:34:00.089Z,2.03
2022-09-15T09:34:40.120Z,1.75
2022-09-15T09:35:32.223Z,1.85
2022-09-15T09:35:53.788Z,2.83
2022-09-15T09:36:05.722Z,2.25
2022-09-15T09:36:18.518Z,2.17
2022-09-15T09:36:30.286Z,2.90
2022-09-15T09:36:42.774Z,3.10
2022-09-15T09:36:58.001Z,2.63
2022-09-15T09:37:12.042Z,2.35
2022-09-15T09:37:24.693Z,2.17
2022-09-15T09:37:36.439Z,2.15
2022-09-15T09:37:49.203Z,1.92
2022-09-15T09:38:02.402Z,2.08
2022-09-15T09:38:26.637Z,2.03
2022-09-15T09:38:40.844Z,1.80
2022-09-15T09:38:52.697Z,1.90
2022-09-15T09:39:05.106Z,1.70
2022-09-15T09:39:16.946Z,1.67
2022-09-15T09:39:28.713Z,1.70
2022-09-15T09:39:41.052Z,1.90
2022-09-15T09:39:52.889Z,1.85
2022-09-15T09:40:05.228Z,2.28
2022-09-15T09:40:17.438Z,2.03
2022-09-15T09:40:31.338Z,2.22
2022-09-15T09:40:43.189Z,2.50
2022-09-15T09:40:58.594Z,2.08
2022-09-15T09:41:15.096Z,2.15
2022-09-15T09:41:35.507Z,2.35
2022-09-15T09:41:47.374Z,1.80
2022-09-15T09:41:59.197Z,1.63
2022-09-15T09:42:15.767Z,2.00
2022-09-15T09:42:30.947Z,2.20
2022-09-15T09:42:42.907Z,2.05
2022-09-15T09:42:54.633Z,2.20
2022-09-15T09:43:06.710Z,2.38
2022-09-15T09:43:18.526Z,1.80
2022-09-15T09:43:30.489Z,2.03
2022-09-15T09:43:43.164Z,2.20
2022-09-15T09:43:55.531Z,2.38
2022-09-15T09:44:11.239Z,2.08
2022-09-15T09:44:31.683Z,1.73
2022-09-15T09:44:44.193Z,1.80
2022-09-15T09:44:55.978Z,1.77
2022-09-15T09:45:12.196Z,1.65
2022-09-15T09:45:24.132Z,1.98
2022-09-15T09:45:35.961Z,2.63
2022-09-15T09:45:47.892Z,2.88
2022-09-15T09:45:59.933Z,2.42
2022-09-15T09:46:17.518Z,2.28
2022-09-15T09:46:29.821Z,1.80
2022-09-15T09:46:42.367Z,1.77
2022-09-15T09:46:54.213Z,1.75
2022-09-15T09:47:06.239Z,1.55
2022-09-15T09:47:17.991Z,1.73
2022-09-15T09:47:29.944Z,2.03
2022-09-15T09:47:41.939Z,2.30
2022-09-15T09:47:59.512Z,1.85
2022-09-15T09:48:21.994Z,1.85
2022-09-15T09:48:33.764Z,2.13
2022-09-15T09:49:21.003Z,2.20
2022-09-15T09:49:41.652Z,1.83
2022-09-15T09:49:54.066Z,2.30
2022-09-15T09:50:43.526Z,2.28
2022-09-15T09:50:55.755Z,2.13
2022-09-15T09:51:32.113Z,2.08
2022-09-15T09:51:59.774Z,1.80
2022-09-15T09:52:12.629Z,1.77
2022-09-15T09:52:38.057Z,1.83
2022-09-15T09:52:49.926Z,2.38
2022-09-15T09:53:25.706Z,2.33
2022-09-15T09:53:37.475Z,2.30
2022-09-15T09:53:51.393Z,2.08
2022-09-15T09:54:16.381Z,1.85
2022-09-15T09:54:29.210Z,1.98
2022-09-15T09:54:42.291Z,2.05
2022-09-15T09:55:18.560Z,2.15
2022-09-15T09:55:30.316Z,1.92
2022-09-15T09:55:42.310Z,2.15
2022-09-15T09:55:55.717Z,2.25
2022-09-15T09:56:16.216Z,2.00
2022-09-15T09:56:27.956Z,1.90
2022-09-15T09:56:40.365Z,2.03
2022-09-15T09:56:53.460Z,2.55
2022-09-15T09:57:14.361Z,2.13
2022-09-15T09:57:32.992Z,1.80
2022-09-15T09:57:44.820Z,1.90
2022-09-15T09:58:16.619Z,1.95
2022-09-15T09:58:28.379Z,2.00
2022-09-15T09:58:40.170Z,1.50
2022-09-15T09:58:52.556Z,1.77
2022-09-15T09:59:04.367Z,2.05
2022-09-15T09:59:48.300Z,2.00
2022-09-15T10:00:00.126Z,1.50
2022-09-15T10:00:41.412Z,1.73
2022-09-15T10:00:53.329Z,2.28
2022-09-15T10:01:17.406Z,2.28
2022-09-15T10:01:29.445Z,1.83
2022-09-15T10:01:41.262Z,1.83
2022-09-15T10:02:26.802Z,2.00
2022-09-15T10:02:47.118Z,2.70
2022-09-15T10:03:00.705Z,1.77
2022-09-15T10:03:16.405Z,1.70
2022-09-15T10:03:32.215Z,2.03
2022-09-15T10:03:45.291Z,2.25
2022-09-15T10:04:16.907Z,2.30
2022-09-15T10:04:29.437Z,2.50
2022-09-15T10:04:44.510Z,2.40
2022-09-15T10:05:18.020Z,2.17
2022-09-15T10:05:30.417Z,2.10
2022-09-15T10:05:43.124Z,2.35
2022-09-15T10:06:27.006Z,2.33
2022-09-15T10:06:38.767Z,2.63
2022-09-15T10:06:50.553Z,2.85
2022-09-15T10:07:02.341Z,2.38
2022-09-15T10:07:16.050Z,2.05
2022-09-15T10:07:27.933Z,2.05
2022-09-15T10:07:43.875Z,2.40
2022-09-15T10:08:02.579Z,2.80
2022-09-15T10:08:19.329Z,2.75
2022-09-15T10:08:31.126Z,2.80
2022-09-15T10:09:06.064Z,2.75
2022-09-15T10:09:18.726Z,3.28
2022-09-15T10:09:33.398Z,3.25
2022-09-15T10:09:50.457Z,3.45
2022-09-15T10:10:02.240Z,3.75
2022-09-15T10:10:28.633Z,3.70
2022-09-15T10:10:40.559Z,3.45
2022-09-15T10:10:53.965Z,3.65
2022-09-15T10:11:10.111Z,3.58
2022-09-15T10:11:22.636Z,3.17
2022-09-15T10:11:51.389Z,2.97
2022-09-15T10:12:04.345Z,3.22
2022-09-15T10:12:24.298Z,3.22
2022-09-15T10:12:40.665Z,3.30
2022-09-15T10:12:55.947Z,2.88
2022-09-15T10:13:10.783Z,2.65
2022-09-15T10:13:22.622Z,2.97
2022-09-15T10:13:35.203Z,2.80
2022-09-15T10:13:54.811Z,2.28
2022-09-15T10:14:06.583Z,2.50
2022-09-15T10:14:52.349Z,2.50
2022-09-15T10:15:06.815Z,2.13
2022-09-15T10:15:27.255Z,2.05
2022-09-15T10:15:39.042Z,2.17
2022-09-15T10:15:59.276Z,2.20
2022-09-15T10:16:11.087Z,1.77
2022-09-15T10:16:22.937Z,1.58
2022-09-15T10:16:34.878Z,1.70
2022-09-15T10:17:22.237Z,1.85
2022-09-15T10:17:36.542Z,1.45
2022-09-15T10:17:48.500Z,1.75
2022-09-15T10:18:00.342Z,1.75
2022-09-15T10:18:32.858Z,2.03
2022-09-15T10:18:44.581Z,1.75
2022-09-15T10:18:56.917Z,1.70
2022-09-15T10:19:14.501Z,1.50
2022-09-15T10:19:27.924Z,1.42
2022-09-15T10:19:58.590Z,1.50
2022-09-15T10:20:40.221Z,2.13
2022-09-15T10:20:51.930Z,2.22
2022-09-15T10:21:08.413Z,2.15
2022-09-15T10:21:22.907Z,1.92
2022-09-15T10:21:34.685Z,2.15
2022-09-15T10:21:46.741Z,2.03
2022-09-15T10:21:58.549Z,1.98
2022-09-15T10:22:10.413Z,2.10
2022-09-15T10:22:39.348Z,2.00
2022-09-15T10:22:51.411Z,2.03
2022-09-15T10:23:31.189Z,2.05
2022-09-15T10:23:43.697Z,2.45
2022-09-15T10:23:56.105Z,2.20
2022-09-15T10:24:33.295Z,1.92
2022-09-15T10:24:45.052Z,1.88
2022-09-15T10:24:57.926Z,2.33
2022-09-15T10:25:21.917Z,2.33
2022-09-15T10:25:57.602Z,1.90
2022-09-15T10:26:32.154Z,2.15
2022-09-15T10:26:44.605Z,1.98
2022-09-15T10:27:21.204Z,1.65
2022-09-15T10:27:36.785Z,2.13
2022-09-15T10:28:16.889Z,1.92
2022-09-15T10:28:28.767Z,2.30
2022-09-15T10:28:40.749Z,2.53
2022-09-15T10:29:17.436Z,2.30
2022-09-15T10:29:29.168Z,2.10
2022-09-15T10:29:40.950Z,2.25
2022-09-15T10:29:52.867Z,2.22
2022-09-15T10:30:13.875Z,2.60
2022-09-15T10:30:26.859Z,2.38
2022-09-15T10:30:39.050Z,2.30
2022-09-15T10:31:16.009Z,2.53
2022-09-15T10:31:32.438Z,2.15
2022-09-15T10:31:45.626Z,2.40
2022-09-15T10:31:57.458Z,2.65
2022-09-15T10:32:25.441Z,2.67
2022-09-15T10:32:37.579Z,1.95
2022-09-15T10:32:49.448Z,2.17
2022-09-15T10:33:27.544Z,2.10
2022-09-15T10:33:45.551Z,2.28
2022-09-15T10:33:57.343Z,1.98
2022-09-15T10:34:26.673Z,1.70
2022-09-15T10:34:38.465Z,1.70
2022-09-15T10:34:59.059Z,1.77
2022-09-15T10:35:21.022Z,2.42
2022-09-15T10:35:32.786Z,2.00
2022-09-15T10:35:44.570Z,1.90
2022-09-15T10:36:11.442Z,1.88
2022-09-15T10:36:30.613Z,1.73
2022-09-15T10:36:42.371Z,1.67
2022-09-15T10:36:55.210Z,1.70
2022-09-15T10:37:24.343Z,1.80
2022-09-15T10:38:11.769Z,1.63
2022-09-15T10:40:37.672Z,1.80
2022-09-15T10:41:13.829Z,1.70
2022-09-15T10:41:39.417Z,1.63
2022-09-15T10:42:26.232Z,1.50
2022-09-15T10:42:46.557Z,1.67
2022-09-15T10:43:14.640Z,1.65
2022-09-15T10:43:48.149Z,2.20
2022-09-15T10:44:17.661Z,1.40
2022-09-15T10:44:53.864Z,1.60
2022-09-15T10:45:34.167Z,1.52
2022-09-15T10:45:49.732Z,1.10
2022-09-15T10:46:08.411Z,1.27
2022-09-15T10:46:39.444Z,2.03
2022-09-15T10:47:34.552Z,1.85
2022-09-15T10:48:20.266Z,1.70
2022-09-15T10:48:59.152Z,1.92
2022-09-15T10:49:36.753Z,2.28
2022-09-15T10:50:24.123Z,1.85
2022-09-15T10:51:15.990Z,1.92
2022-09-15T10:51:41.106Z,2.20
2022-09-15T10:52:16.789Z,2.45
2022-09-15T10:53:06.258Z,1.70
2022-09-15T10:53:36.281Z,1.67
2022-09-15T10:54:06.682Z,1.60
2022-09-15T10:55:02.426Z,1.60
2022-09-15T10:55:54.861Z,1.55
2022-09-15T10:56:29.747Z,1.38
2022-09-15T10:56:44.351Z,1.85
2022-09-15T10:57:05.669Z,1.70
2022-09-15T10:57:55.727Z,1.70
2022-09-15T10:58:33.744Z,1.55
2022-09-15T10:59:22.459Z,1.73
2022-09-15T10:59:53.166Z,1.52
2022-09-15T11:00:11.685Z,1.02
2022-09-15T11:00:24.863Z,1.20
2022-09-15T11:00:58.224Z,1.50
2022-09-15T11:01:26.557Z,1.30
2022-09-15T11:01:48.282Z,1.75
2022-09-15T11:02:30.100Z,1.00
2022-09-15T11:03:38.609Z,1.63
2022-09-15T11:04:27.812Z,1.10
2022-09-15T11:04:58.485Z,2.00
2022-09-15T11:11:39.422Z,1.10
2022-09-15T11:12:18.020Z,1.50
2022-09-15T11:12:35.671Z,1.40
2022-09-15T11:13:31.386Z,1.17
2022-09-15T11:14:05.968Z,1.05
2022-09-15T11:14:39.151Z,1.67
2022-09-15T11:15:23.037Z,1.77
2022-09-15T11:16:13.901Z,1.20
2022-09-15T11:17:15.944Z,1.27
2022-09-15T11:17:43.940Z,1.52
2022-09-15T11:18:25.531Z,1.20
2022-09-15T11:18:55.457Z,1.50
2022-09-15T11:19:27.873Z,1.48
2022-09-15T11:19:45.560Z,1.60
2022-09-15T11:20:18.301Z,2.30
2022-09-15T11:20:35.771Z,1.70
2022-09-15T11:21:21.447Z,1.67
2022-09-15T11:21:54.019Z,1.55
2022-09-15T11:22:36.056Z,1.45
2022-09-15T11:23:05.788Z,1.48
2022-09-15T11:23:21.605Z,1.95
2022-09-15T11:24:10.892Z,1.70
2022-09-15T11:24:49.671Z,1.95
2022-09-15T11:25:29.633Z,1.38
2022-09-15T11:25:53.209Z,1.73
2022-09-15T11:26:21.776Z,1.60
2022-09-15T11:26:42.783Z,1.92
2022-09-15T11:27:32.082Z,2.15
2022-09-15T11:27:53.845Z,1.60
2022-09-15T11:29:01.380Z,1.67
2022-09-15T11:29:31.650Z,1.52
2022-09-15T11:29:55.452Z,1.98
2022-09-15T11:30:24.160Z,1.27
2022-09-15T11:30:47.505Z,1.05
2022-09-15T11:31:16.289Z,0.88
2022-09-15T11:31:35.155Z,1.10
2022-09-15T11:31:49.307Z,0.95
2022-09-15T11:32:06.573Z,0.80
2022-09-15T11:32:25.996Z,0.88
2022-09-15T11:32:58.766Z,1.02
2022-09-15T11:33:49.865Z,1.25
2022-09-15T11:34:26.524Z,1.15
2022-09-15T11:34:54.153Z,1.08
2022-09-15T11:35:31.425Z,1.10
2022-09-15T11:36:14.352Z,1.00
2022-09-15T11:36:37.945Z,1.80
2022-09-15T11:37:45.244Z,1.15
2022-09-15T11:38:24.275Z,1.00
2022-09-15T11:38:47.921Z,1.20
2022-09-15T11:39:11.733Z,0.90
2022-09-15T11:39:25.776Z,0.93
2022-09-15T11:39:49.892Z,1.30
2022-09-15T11:40:13.809Z,1.30
2022-09-15T11:40:33.427Z,1.10
2022-09-15T11:41:09.438Z,1.40
2022-09-15T11:41:39.026Z,1.20
2022-09-15T11:42:40.326Z,1.55
2022-09-15T11:43:28.144Z,1.25
2022-09-15T11:44:12.402Z,1.25